sensor_id;sensor_type;location;lat;lon;timestamp;P1;durP1;ratioP1;P2;durP2;ratioP2
43650;SDS011;29247;50.944;5.382;2023-03-13T00:01:37;13.30;;;1.63;;
43650;SDS011;29247;50.944;5.382;2023-03-13T00:04:06;8.00;;;2.25;;
43650;SDS011;29247;50.944;5.382;2023-03-13T00:06:35;9.07;;;1.50;;
43650;SDS011;29247;50.944;5.382;2023-03-13T00:09:03;4.95;;;1.52;;
43650;SDS011;29247;50.944;5.382;2023-03-13T00:11:31;13.20;;;2.03;;
43650;SDS011;29247;50.944;5.382;2023-03-13T00:13:58;5.38;;;2.05;;
43650;SDS011;29247;50.944;5.382;2023-03-13T00:16:27;10.73;;;1.98;;
43650;SDS011;29247;50.944;5.382;2023-03-13T00:18:58;15.32;;;2.13;;
43650;SDS011;29247;50.944;5.382;2023-03-13T00:21:26;10.55;;;1.67;;
43650;SDS011;29247;50.944;5.382;2023-03-13T00:23:56;11.13;;;1.98;;
43650;SDS011;29247;50.944;5.382;2023-03-13T00:26:23;4.97;;;1.38;;
43650;SDS011;29247;50.944;5.382;2023-03-13T00:28:50;7.90;;;1.40;;
43650;SDS011;29247;50.944;5.382;2023-03-13T00:31:20;8.43;;;1.58;;
43650;SDS011;29247;50.944;5.382;2023-03-13T00:33:48;7.88;;;1.60;;
43650;SDS011;29247;50.944;5.382;2023-03-13T00:36:25;10.38;;;1.60;;
43650;SDS011;29247;50.944;5.382;2023-03-13T00:38:57;10.10;;;1.73;;
43650;SDS011;29247;50.944;5.382;2023-03-13T00:41:27;11.40;;;1.50;;
43650;SDS011;29247;50.944;5.382;2023-03-13T00:43:59;6.55;;;1.00;;
43650;SDS011;29247;50.944;5.382;2023-03-13T00:46:26;10.63;;;1.50;;
43650;SDS011;29247;50.944;5.382;2023-03-13T00:48:55;9.98;;;1.60;;
43650;SDS011;29247;50.944;5.382;2023-03-13T00:51:24;6.15;;;1.20;;
43650;SDS011;29247;50.944;5.382;2023-03-13T00:53:53;11.75;;;1.73;;
43650;SDS011;29247;50.944;5.382;2023-03-13T00:56:20;7.18;;;1.58;;
43650;SDS011;29247;50.944;5.382;2023-03-13T00:58:47;7.72;;;1.27;;
43650;SDS011;29247;50.944;5.382;2023-03-13T01:01:26;8.13;;;2.88;;
43650;SDS011;29247;50.944;5.382;2023-03-13T01:03:57;7.37;;;1.13;;
43650;SDS011;29247;50.944;5.382;2023-03-13T01:06:26;4.50;;;1.10;;
43650;SDS011;29247;50.944;5.382;2023-03-13T01:08:53;6.50;;;1.30;;
43650;SDS011;29247;50.944;5.382;2023-03-13T01:11:24;5.20;;;1.17;;
43650;SDS011;29247;50.944;5.382;2023-03-13T01:13:55;8.50;;;1.20;;
43650;SDS011;29247;50.944;5.382;2023-03-13T01:16:22;8.90;;;1.15;;
43650;SDS011;29247;50.944;5.382;2023-03-13T01:18:53;3.45;;;1.42;;
43650;SDS011;29247;50.944;5.382;2023-03-13T01:21:23;5.70;;;1.17;;
43650;SDS011;29247;50.944;5.382;2023-03-13T01:23:52;7.63;;;1.25;;
43650;SDS011;29247;50.944;5.382;2023-03-13T01:26:19;3.97;;;1.15;;
43650;SDS011;29247;50.944;5.382;2023-03-13T01:28:45;5.70;;;1.27;;
43650;SDS011;29247;50.944;5.382;2023-03-13T01:31:19;10.40;;;1.20;;
43650;SDS011;29247;50.944;5.382;2023-03-13T01:33:50;5.47;;;1.17;;
43650;SDS011;29247;50.944;5.382;2023-03-13T01:36:20;5.50;;;1.05;;
43650;SDS011;29247;50.944;5.382;2023-03-13T01:38:52;4.28;;;1.08;;
43650;SDS011;29247;50.944;5.382;2023-03-13T01:41:22;5.57;;;1.20;;
43650;SDS011;29247;50.944;5.382;2023-03-13T01:43:51;3.47;;;0.93;;
43650;SDS011;29247;50.944;5.382;2023-03-13T01:46:20;3.90;;;0.90;;
43650;SDS011;29247;50.944;5.382;2023-03-13T01:51:39;3.35;;;0.90;;
43650;SDS011;29247;50.944;5.382;2023-03-13T01:54:11;3.67;;;1.10;;
43650;SDS011;29247;50.944;5.382;2023-03-13T01:59:16;2.40;;;1.00;;
43650;SDS011;29247;50.944;5.382;2023-03-13T02:01:52;3.47;;;1.00;;
43650;SDS011;29247;50.944;5.382;2023-03-13T02:04:23;3.25;;;0.82;;
43650;SDS011;29247;50.944;5.382;2023-03-13T02:06:55;1.98;;;0.85;;
43650;SDS011;29247;50.944;5.382;2023-03-13T02:09:25;3.15;;;1.00;;
43650;SDS011;29247;50.944;5.382;2023-03-13T02:11:55;4.22;;;1.05;;
43650;SDS011;29247;50.944;5.382;2023-03-13T02:14:26;1.75;;;0.90;;
43650;SDS011;29247;50.944;5.382;2023-03-13T02:16:54;1.67;;;1.13;;
43650;SDS011;29247;50.944;5.382;2023-03-13T02:19:27;2.45;;;1.00;;
43650;SDS011;29247;50.944;5.382;2023-03-13T02:22:13;2.40;;;0.90;;
43650;SDS011;29247;50.944;5.382;2023-03-13T02:27:41;0.98;;;0.90;;
43650;SDS011;29247;50.944;5.382;2023-03-13T02:30:10;4.57;;;1.30;;
43650;SDS011;29247;50.944;5.382;2023-03-13T02:32:39;2.03;;;1.02;;
43650;SDS011;29247;50.944;5.382;2023-03-13T02:35:06;1.75;;;1.33;;
43650;SDS011;29247;50.944;5.382;2023-03-13T02:37:33;1.40;;;0.98;;
43650;SDS011;29247;50.944;5.382;2023-03-13T02:40:02;3.42;;;1.40;;
43650;SDS011;29247;50.944;5.382;2023-03-13T02:42:36;2.08;;;1.20;;
43650;SDS011;29247;50.944;5.382;2023-03-13T02:45:07;1.83;;;1.30;;
43650;SDS011;29247;50.944;5.382;2023-03-13T02:47:36;2.13;;;1.15;;
43650;SDS011;29247;50.944;5.382;2023-03-13T02:50:04;4.13;;;1.45;;
43650;SDS011;29247;50.944;5.382;2023-03-13T02:52:30;1.88;;;1.23;;
43650;SDS011;29247;50.944;5.382;2023-03-13T02:55:05;3.70;;;1.20;;
43650;SDS011;29247;50.944;5.382;2023-03-13T02:57:35;2.45;;;1.20;;
43650;SDS011;29247;50.944;5.382;2023-03-13T03:00:00;2.85;;;1.50;;
43650;SDS011;29247;50.944;5.382;2023-03-13T03:02:29;1.67;;;1.15;;
43650;SDS011;29247;50.944;5.382;2023-03-13T03:04:54;2.17;;;1.30;;
43650;SDS011;29247;50.944;5.382;2023-03-13T03:07:23;2.03;;;1.23;;
43650;SDS011;29247;50.944;5.382;2023-03-13T03:09:49;1.70;;;1.23;;
43650;SDS011;29247;50.944;5.382;2023-03-13T03:12:14;3.10;;;1.17;;
43650;SDS011;29247;50.944;5.382;2023-03-13T03:14:40;2.47;;;1.17;;
43650;SDS011;29247;50.944;5.382;2023-03-13T03:17:08;1.98;;;1.30;;
43650;SDS011;29247;50.944;5.382;2023-03-13T03:19:34;2.15;;;1.45;;
43650;SDS011;29247;50.944;5.382;2023-03-13T03:21:59;2.70;;;1.15;;
43650;SDS011;29247;50.944;5.382;2023-03-13T03:24:27;1.58;;;1.23;;
43650;SDS011;29247;50.944;5.382;2023-03-13T03:26:53;3.22;;;1.35;;
43650;SDS011;29247;50.944;5.382;2023-03-13T03:29:18;2.28;;;2.08;;
43650;SDS011;29247;50.944;5.382;2023-03-13T03:31:47;1.75;;;1.25;;
43650;SDS011;29247;50.944;5.382;2023-03-13T03:34:12;1.48;;;1.35;;
43650;SDS011;29247;50.944;5.382;2023-03-13T03:36:40;4.80;;;1.48;;
43650;SDS011;29247;50.944;5.382;2023-03-13T03:39:06;4.57;;;1.45;;
43650;SDS011;29247;50.944;5.382;2023-03-13T03:41:34;2.97;;;1.40;;
43650;SDS011;29247;50.944;5.382;2023-03-13T03:44:01;2.80;;;1.50;;
43650;SDS011;29247;50.944;5.382;2023-03-13T03:46:27;2.45;;;1.40;;
43650;SDS011;29247;50.944;5.382;2023-03-13T03:48:56;3.25;;;1.90;;
43650;SDS011;29247;50.944;5.382;2023-03-13T03:51:24;2.15;;;1.60;;
43650;SDS011;29247;50.944;5.382;2023-03-13T03:53:49;2.28;;;1.90;;
43650;SDS011;29247;50.944;5.382;2023-03-13T03:56:15;2.15;;;1.63;;
43650;SDS011;29247;50.944;5.382;2023-03-13T03:58:41;2.88;;;2.03;;
43650;SDS011;29247;50.944;5.382;2023-03-13T04:01:07;4.80;;;1.85;;
43650;SDS011;29247;50.944;5.382;2023-03-13T04:03:32;3.20;;;2.22;;
43650;SDS011;29247;50.944;5.382;2023-03-13T04:05:58;3.15;;;2.00;;
43650;SDS011;29247;50.944;5.382;2023-03-13T04:08:29;3.20;;;2.25;;
43650;SDS011;29247;50.944;5.382;2023-03-13T04:11:00;3.25;;;2.00;;
43650;SDS011;29247;50.944;5.382;2023-03-13T04:13:26;2.03;;;1.85;;
43650;SDS011;29247;50.944;5.382;2023-03-13T04:15:54;3.20;;;2.03;;
43650;SDS011;29247;50.944;5.382;2023-03-13T04:18:20;3.45;;;2.30;;
43650;SDS011;29247;50.944;5.382;2023-03-13T04:20:48;3.42;;;2.08;;
43650;SDS011;29247;50.944;5.382;2023-03-13T04:23:16;3.22;;;1.90;;
43650;SDS011;29247;50.944;5.382;2023-03-13T04:25:41;3.10;;;2.17;;
43650;SDS011;29247;50.944;5.382;2023-03-13T04:28:07;4.82;;;2.25;;
43650;SDS011;29247;50.944;5.382;2023-03-13T04:30:35;2.17;;;1.60;;
43650;SDS011;29247;50.944;5.382;2023-03-13T04:33:01;5.13;;;2.00;;
43650;SDS011;29247;50.944;5.382;2023-03-13T04:35:27;3.25;;;2.00;;
43650;SDS011;29247;50.944;5.382;2023-03-13T04:37:52;2.55;;;1.92;;
43650;SDS011;29247;50.944;5.382;2023-03-13T04:40:18;2.85;;;2.00;;
43650;SDS011;29247;50.944;5.382;2023-03-13T04:42:43;4.03;;;2.15;;
43650;SDS011;29247;50.944;5.382;2023-03-13T04:45:12;5.32;;;2.33;;
43650;SDS011;29247;50.944;5.382;2023-03-13T04:50:12;5.20;;;1.60;;
43650;SDS011;29247;50.944;5.382;2023-03-13T04:52:37;3.35;;;1.88;;
43650;SDS011;29247;50.944;5.382;2023-03-13T04:55:05;3.75;;;1.63;;
43650;SDS011;29247;50.944;5.382;2023-03-13T04:57:33;1.70;;;1.45;;
43650;SDS011;29247;50.944;5.382;2023-03-13T05:00:01;3.83;;;1.95;;
43650;SDS011;29247;50.944;5.382;2023-03-13T05:02:31;5.32;;;1.90;;
43650;SDS011;29247;50.944;5.382;2023-03-13T05:05:00;2.10;;;1.52;;
43650;SDS011;29247;50.944;5.382;2023-03-13T05:07:25;2.83;;;1.88;;
43650;SDS011;29247;50.944;5.382;2023-03-13T05:09:51;3.42;;;2.13;;
43650;SDS011;29247;50.944;5.382;2023-03-13T05:12:17;1.90;;;1.50;;
43650;SDS011;29247;50.944;5.382;2023-03-13T05:14:42;4.15;;;1.73;;
43650;SDS011;29247;50.944;5.382;2023-03-13T05:17:08;2.78;;;1.40;;
43650;SDS011;29247;50.944;5.382;2023-03-13T05:19:35;2.28;;;1.55;;
43650;SDS011;29247;50.944;5.382;2023-03-13T05:22:03;3.13;;;1.25;;
43650;SDS011;29247;50.944;5.382;2023-03-13T05:24:31;1.92;;;1.35;;
43650;SDS011;29247;50.944;5.382;2023-03-13T05:26:57;4.10;;;1.40;;
43650;SDS011;29247;50.944;5.382;2023-03-13T05:29:23;2.10;;;1.38;;
43650;SDS011;29247;50.944;5.382;2023-03-13T05:31:48;2.60;;;1.30;;
43650;SDS011;29247;50.944;5.382;2023-03-13T05:34:14;3.67;;;2.08;;
43650;SDS011;29247;50.944;5.382;2023-03-13T05:36:40;3.97;;;1.67;;
43650;SDS011;29247;50.944;5.382;2023-03-13T05:39:05;4.22;;;1.45;;
43650;SDS011;29247;50.944;5.382;2023-03-13T05:41:31;2.97;;;1.25;;
43650;SDS011;29247;50.944;5.382;2023-03-13T05:43:57;3.97;;;1.30;;
43650;SDS011;29247;50.944;5.382;2023-03-13T05:46:22;2.78;;;1.40;;
43650;SDS011;29247;50.944;5.382;2023-03-13T05:48:51;2.13;;;1.58;;
43650;SDS011;29247;50.944;5.382;2023-03-13T05:51:17;2.30;;;1.25;;
43650;SDS011;29247;50.944;5.382;2023-03-13T05:53:43;2.30;;;1.48;;
43650;SDS011;29247;50.944;5.382;2023-03-13T05:56:11;3.75;;;1.38;;
43650;SDS011;29247;50.944;5.382;2023-03-13T05:58:37;4.63;;;2.20;;
43650;SDS011;29247;50.944;5.382;2023-03-13T06:01:09;2.85;;;1.20;;
43650;SDS011;29247;50.944;5.382;2023-03-13T06:03:37;5.85;;;1.85;;
43650;SDS011;29247;50.944;5.382;2023-03-13T06:06:05;6.28;;;1.40;;
43650;SDS011;29247;50.944;5.382;2023-03-13T06:08:36;2.65;;;1.23;;
43650;SDS011;29247;50.944;5.382;2023-03-13T06:11:02;6.88;;;1.60;;
43650;SDS011;29247;50.944;5.382;2023-03-13T06:13:27;5.97;;;1.65;;
43650;SDS011;29247;50.944;5.382;2023-03-13T06:15:54;2.75;;;1.15;;
43650;SDS011;29247;50.944;5.382;2023-03-13T06:18:21;3.05;;;1.33;;
43650;SDS011;29247;50.944;5.382;2023-03-13T06:20:54;6.18;;;2.00;;
43650;SDS011;29247;50.944;5.382;2023-03-13T06:23:28;2.33;;;1.35;;
43650;SDS011;29247;50.944;5.382;2023-03-13T06:25:54;5.22;;;1.40;;
43650;SDS011;29247;50.944;5.382;2023-03-13T06:28:20;5.60;;;1.50;;
43650;SDS011;29247;50.944;5.382;2023-03-13T06:30:48;2.85;;;1.52;;
43650;SDS011;29247;50.944;5.382;2023-03-13T06:33:16;5.47;;;1.50;;
43650;SDS011;29247;50.944;5.382;2023-03-13T06:35:42;4.90;;;1.45;;
43650;SDS011;29247;50.944;5.382;2023-03-13T06:38:09;2.65;;;1.30;;
43650;SDS011;29247;50.944;5.382;2023-03-13T06:40:40;6.03;;;1.67;;
43650;SDS011;29247;50.944;5.382;2023-03-13T06:43:06;4.78;;;1.73;;
43650;SDS011;29247;50.944;5.382;2023-03-13T06:45:35;5.00;;;1.38;;
43650;SDS011;29247;50.944;5.382;2023-03-13T06:48:06;5.70;;;1.20;;
43650;SDS011;29247;50.944;5.382;2023-03-13T06:50:31;5.05;;;1.65;;
43650;SDS011;29247;50.944;5.382;2023-03-13T06:52:57;5.85;;;1.55;;
43650;SDS011;29247;50.944;5.382;2023-03-13T06:55:25;3.85;;;1.38;;
43650;SDS011;29247;50.944;5.382;2023-03-13T06:57:58;2.00;;;1.30;;
43650;SDS011;29247;50.944;5.382;2023-03-13T07:02:52;3.90;;;1.77;;
43650;SDS011;29247;50.944;5.382;2023-03-13T07:05:18;5.85;;;1.50;;
43650;SDS011;29247;50.944;5.382;2023-03-13T07:07:46;7.75;;;1.52;;
43650;SDS011;29247;50.944;5.382;2023-03-13T07:10:15;3.47;;;1.30;;
43650;SDS011;29247;50.944;5.382;2023-03-13T07:12:41;4.45;;;1.42;;
43650;SDS011;29247;50.944;5.382;2023-03-13T07:15:11;2.10;;;1.38;;
43650;SDS011;29247;50.944;5.382;2023-03-13T07:17:40;4.75;;;1.60;;
43650;SDS011;29247;50.944;5.382;2023-03-13T07:20:05;2.65;;;1.60;;
43650;SDS011;29247;50.944;5.382;2023-03-13T07:22:34;3.20;;;1.42;;
43650;SDS011;29247;50.944;5.382;2023-03-13T07:25:04;4.30;;;1.52;;
43650;SDS011;29247;50.944;5.382;2023-03-13T07:27:30;4.72;;;2.22;;
43650;SDS011;29247;50.944;5.382;2023-03-13T07:29:59;7.35;;;1.73;;
43650;SDS011;29247;50.944;5.382;2023-03-13T07:32:31;7.18;;;1.48;;
43650;SDS011;29247;50.944;5.382;2023-03-13T07:34:58;4.65;;;1.90;;
43650;SDS011;29247;50.944;5.382;2023-03-13T07:37:28;6.30;;;1.48;;
43650;SDS011;29247;50.944;5.382;2023-03-13T07:39:56;4.00;;;1.67;;
43650;SDS011;29247;50.944;5.382;2023-03-13T07:42:22;4.40;;;1.63;;
43650;SDS011;29247;50.944;5.382;2023-03-13T07:44:51;7.68;;;1.50;;
43650;SDS011;29247;50.944;5.382;2023-03-13T07:47:18;7.18;;;1.52;;
43650;SDS011;29247;50.944;5.382;2023-03-13T07:49:44;4.93;;;1.65;;
43650;SDS011;29247;50.944;5.382;2023-03-13T07:52:11;5.97;;;1.33;;
43650;SDS011;29247;50.944;5.382;2023-03-13T07:54:39;8.07;;;1.55;;
43650;SDS011;29247;50.944;5.382;2023-03-13T07:57:05;5.47;;;1.60;;
43650;SDS011;29247;50.944;5.382;2023-03-13T07:59:35;4.00;;;1.50;;
43650;SDS011;29247;50.944;5.382;2023-03-13T08:02:01;8.02;;;3.20;;
43650;SDS011;29247;50.944;5.382;2023-03-13T08:04:27;3.22;;;1.33;;
43650;SDS011;29247;50.944;5.382;2023-03-13T08:06:53;8.10;;;1.73;;
43650;SDS011;29247;50.944;5.382;2023-03-13T08:09:19;6.45;;;1.38;;
43650;SDS011;29247;50.944;5.382;2023-03-13T08:11:45;5.57;;;1.40;;
43650;SDS011;29247;50.944;5.382;2023-03-13T08:14:14;4.88;;;1.60;;
43650;SDS011;29247;50.944;5.382;2023-03-13T08:16:42;4.28;;;1.88;;
43650;SDS011;29247;50.944;5.382;2023-03-13T08:19:08;3.35;;;1.45;;
43650;SDS011;29247;50.944;5.382;2023-03-13T08:21:37;3.08;;;1.67;;
43650;SDS011;29247;50.944;5.382;2023-03-13T08:24:05;6.95;;;1.67;;
43650;SDS011;29247;50.944;5.382;2023-03-13T08:29:05;7.93;;;2.00;;
43650;SDS011;29247;50.944;5.382;2023-03-13T08:31:34;6.55;;;1.63;;
43650;SDS011;29247;50.944;5.382;2023-03-13T08:36:33;3.88;;;1.45;;
43650;SDS011;29247;50.944;5.382;2023-03-13T08:39:04;5.00;;;1.60;;
43650;SDS011;29247;50.944;5.382;2023-03-13T08:41:39;3.25;;;1.23;;
43650;SDS011;29247;50.944;5.382;2023-03-13T08:46:40;5.40;;;2.10;;
43650;SDS011;29247;50.944;5.382;2023-03-13T08:49:08;2.65;;;1.75;;
43650;SDS011;29247;50.944;5.382;2023-03-13T08:51:37;4.35;;;1.50;;
43650;SDS011;29247;50.944;5.382;2023-03-13T08:54:06;4.65;;;1.52;;
43650;SDS011;29247;50.944;5.382;2023-03-13T08:56:36;4.28;;;1.42;;
43650;SDS011;29247;50.944;5.382;2023-03-13T08:59:03;3.05;;;1.60;;
43650;SDS011;29247;50.944;5.382;2023-03-13T09:01:32;7.88;;;2.35;;
43650;SDS011;29247;50.944;5.382;2023-03-13T09:03:59;3.13;;;1.50;;
43650;SDS011;29247;50.944;5.382;2023-03-13T09:06:27;3.58;;;1.95;;
43650;SDS011;29247;50.944;5.382;2023-03-13T09:08:54;2.22;;;1.83;;
43650;SDS011;29247;50.944;5.382;2023-03-13T09:11:22;2.47;;;1.48;;
43650;SDS011;29247;50.944;5.382;2023-03-13T09:13:50;5.53;;;1.23;;
43650;SDS011;29247;50.944;5.382;2023-03-13T09:16:17;7.93;;;1.80;;
43650;SDS011;29247;50.944;5.382;2023-03-13T09:18:47;3.30;;;1.50;;
43650;SDS011;29247;50.944;5.382;2023-03-13T09:21:15;4.00;;;1.40;;
43650;SDS011;29247;50.944;5.382;2023-03-13T09:23:45;2.60;;;1.25;;
43650;SDS011;29247;50.944;5.382;2023-03-13T09:26:11;2.15;;;1.33;;
43650;SDS011;29247;50.944;5.382;2023-03-13T09:28:38;3.00;;;1.48;;
43650;SDS011;29247;50.944;5.382;2023-03-13T09:31:10;4.45;;;1.00;;
43650;SDS011;29247;50.944;5.382;2023-03-13T09:33:38;3.08;;;1.45;;
43650;SDS011;29247;50.944;5.382;2023-03-13T09:36:08;5.18;;;1.75;;
43650;SDS011;29247;50.944;5.382;2023-03-13T09:38:34;5.05;;;1.40;;
43650;SDS011;29247;50.944;5.382;2023-03-13T09:52:15;4.55;;;1.38;;
43650;SDS011;29247;50.944;5.382;2023-03-13T10:00:10;2.88;;;1.05;;
43650;SDS011;29247;50.944;5.382;2023-03-13T10:02:44;2.17;;;1.00;;
43650;SDS011;29247;50.944;5.382;2023-03-13T10:05:16;2.88;;;1.23;;
43650;SDS011;29247;50.944;5.382;2023-03-13T10:07:45;3.13;;;1.48;;
43650;SDS011;29247;50.944;5.382;2023-03-13T10:18:35;3.80;;;1.20;;
43650;SDS011;29247;50.944;5.382;2023-03-13T10:21:13;3.50;;;1.38;;
43650;SDS011;29247;50.944;5.382;2023-03-13T10:26:22;1.08;;;0.98;;
43650;SDS011;29247;50.944;5.382;2023-03-13T10:28:55;2.20;;;1.15;;
43650;SDS011;29247;50.944;5.382;2023-03-13T10:33:50;1.55;;;0.73;;
43650;SDS011;29247;50.944;5.382;2023-03-13T10:36:15;1.50;;;1.10;;
43650;SDS011;29247;50.944;5.382;2023-03-13T10:38:53;3.67;;;1.15;;
43650;SDS011;29247;50.944;5.382;2023-03-13T10:41:21;2.00;;;0.93;;
43650;SDS011;29247;50.944;5.382;2023-03-13T10:43:54;1.25;;;0.90;;
43650;SDS011;29247;50.944;5.382;2023-03-13T10:46:28;3.65;;;1.10;;
43650;SDS011;29247;50.944;5.382;2023-03-13T10:48:56;0.75;;;0.75;;
43650;SDS011;29247;50.944;5.382;2023-03-13T10:51:29;2.75;;;1.02;;
43650;SDS011;29247;50.944;5.382;2023-03-13T10:54:13;2.08;;;1.13;;
43650;SDS011;29247;50.944;5.382;2023-03-13T10:57:19;2.90;;;0.90;;
43650;SDS011;29247;50.944;5.382;2023-03-13T10:59:49;1.17;;;0.90;;
43650;SDS011;29247;50.944;5.382;2023-03-13T11:02:36;1.40;;;0.80;;
43650;SDS011;29247;50.944;5.382;2023-03-13T11:07:50;1.95;;;0.80;;
43650;SDS011;29247;50.944;5.382;2023-03-13T11:12:43;1.08;;;0.98;;
43650;SDS011;29247;50.944;5.382;2023-03-13T11:15:16;5.07;;;0.85;;
43650;SDS011;29247;50.944;5.382;2023-03-13T11:17:53;5.35;;;0.98;;
43650;SDS011;29247;50.944;5.382;2023-03-13T11:20:28;1.38;;;0.80;;
43650;SDS011;29247;50.944;5.382;2023-03-13T11:25:42;1.13;;;1.00;;
43650;SDS011;29247;50.944;5.382;2023-03-13T11:36:35;1.95;;;0.80;;
43650;SDS011;29247;50.944;5.382;2023-03-13T11:48:16;1.30;;;0.80;;
43650;SDS011;29247;50.944;5.382;2023-03-13T12:02:36;2.00;;;0.85;;
43650;SDS011;29247;50.944;5.382;2023-03-13T12:04:55;1.13;;;0.60;;
43650;SDS011;29247;50.944;5.382;2023-03-13T12:07:34;0.80;;;0.77;;
43650;SDS011;29247;50.944;5.382;2023-03-13T12:10:01;0.70;;;0.70;;
43650;SDS011;29247;50.944;5.382;2023-03-13T12:12:37;1.08;;;0.70;;
43650;SDS011;29247;50.944;5.382;2023-03-13T12:17:47;0.60;;;0.60;;
43650;SDS011;29247;50.944;5.382;2023-03-13T12:23:49;0.70;;;0.60;;
43650;SDS011;29247;50.944;5.382;2023-03-13T12:26:46;2.25;;;0.60;;
43650;SDS011;29247;50.944;5.382;2023-03-13T12:29:25;1.67;;;0.60;;
43650;SDS011;29247;50.944;5.382;2023-03-13T12:31:56;4.55;;;0.70;;
43650;SDS011;29247;50.944;5.382;2023-03-13T12:37:20;1.45;;;0.85;;
43650;SDS011;29247;50.944;5.382;2023-03-13T12:40:00;0.63;;;0.63;;
43650;SDS011;29247;50.944;5.382;2023-03-13T12:42:38;1.83;;;0.65;;
43650;SDS011;29247;50.944;5.382;2023-03-13T12:45:13;1.00;;;0.57;;
43650;SDS011;29247;50.944;5.382;2023-03-13T13:01:44;1.15;;;0.63;;
43650;SDS011;29247;50.944;5.382;2023-03-13T13:07:17;1.20;;;0.80;;
43650;SDS011;29247;50.944;5.382;2023-03-13T13:12:38;1.27;;;0.90;;
43650;SDS011;29247;50.944;5.382;2023-03-13T13:15:14;0.77;;;0.65;;
43650;SDS011;29247;50.944;5.382;2023-03-13T13:22:54;1.70;;;0.82;;
43650;SDS011;29247;50.944;5.382;2023-03-13T13:27:53;2.97;;;0.82;;
43650;SDS011;29247;50.944;5.382;2023-03-13T13:35:34;2.33;;;0.90;;
43650;SDS011;29247;50.944;5.382;2023-03-13T13:46:29;1.75;;;0.60;;
43650;SDS011;29247;50.944;5.382;2023-03-13T13:51:29;2.05;;;1.10;;
43650;SDS011;29247;50.944;5.382;2023-03-13T13:53:56;1.40;;;0.70;;
43650;SDS011;29247;50.944;5.382;2023-03-13T13:59:02;1.27;;;1.00;;
43650;SDS011;29247;50.944;5.382;2023-03-13T14:01:40;0.65;;;0.65;;
43650;SDS011;29247;50.944;5.382;2023-03-13T14:04:12;2.15;;;0.90;;
43650;SDS011;29247;50.944;5.382;2023-03-13T14:06:47;3.17;;;0.80;;
43650;SDS011;29247;50.944;5.382;2023-03-13T14:09:23;2.90;;;1.13;;
43650;SDS011;29247;50.944;5.382;2023-03-13T14:17:40;1.25;;;0.70;;
43650;SDS011;29247;50.944;5.382;2023-03-13T14:22:49;2.13;;;0.90;;
43650;SDS011;29247;50.944;5.382;2023-03-13T14:25:15;1.42;;;0.70;;
43650;SDS011;29247;50.944;5.382;2023-03-13T14:27:46;2.55;;;1.00;;
43650;SDS011;29247;50.944;5.382;2023-03-13T14:30:14;2.97;;;0.90;;
43650;SDS011;29247;50.944;5.382;2023-03-13T14:32:42;2.42;;;0.88;;
43650;SDS011;29247;50.944;5.382;2023-03-13T14:35:08;1.95;;;0.98;;
43650;SDS011;29247;50.944;5.382;2023-03-13T14:37:40;3.97;;;1.08;;
43650;SDS011;29247;50.944;5.382;2023-03-13T14:40:08;1.73;;;0.80;;
43650;SDS011;29247;50.944;5.382;2023-03-13T14:42:55;3.38;;;0.82;;
43650;SDS011;29247;50.944;5.382;2023-03-13T14:48:32;1.65;;;0.90;;
43650;SDS011;29247;50.944;5.382;2023-03-13T14:51:09;1.17;;;0.93;;
43650;SDS011;29247;50.944;5.382;2023-03-13T14:53:54;0.75;;;0.60;;
43650;SDS011;29247;50.944;5.382;2023-03-13T14:56:29;3.13;;;0.90;;
43650;SDS011;29247;50.944;5.382;2023-03-13T14:59:06;2.78;;;0.80;;
43650;SDS011;29247;50.944;5.382;2023-03-13T15:01:37;1.75;;;0.80;;
43650;SDS011;29247;50.944;5.382;2023-03-13T15:04:06;1.88;;;0.75;;
43650;SDS011;29247;50.944;5.382;2023-03-13T15:06:31;4.45;;;0.75;;
43650;SDS011;29247;50.944;5.382;2023-03-13T15:09:14;2.03;;;1.20;;
43650;SDS011;29247;50.944;5.382;2023-03-13T15:14:39;1.55;;;0.80;;
43650;SDS011;29247;50.944;5.382;2023-03-13T15:17:20;2.30;;;0.88;;
43650;SDS011;29247;50.944;5.382;2023-03-13T15:19:56;4.57;;;0.82;;
43650;SDS011;29247;50.944;5.382;2023-03-13T15:22:29;1.65;;;0.80;;
43650;SDS011;29247;50.944;5.382;2023-03-13T15:24:56;3.90;;;0.85;;
43650;SDS011;29247;50.944;5.382;2023-03-13T15:27:24;3.50;;;0.82;;
43650;SDS011;29247;50.944;5.382;2023-03-13T15:29:53;4.13;;;0.98;;
43650;SDS011;29247;50.944;5.382;2023-03-13T15:32:28;1.40;;;0.80;;
43650;SDS011;29247;50.944;5.382;2023-03-13T15:34:57;1.08;;;0.80;;
43650;SDS011;29247;50.944;5.382;2023-03-13T15:37:26;4.93;;;1.05;;
43650;SDS011;29247;50.944;5.382;2023-03-13T15:39:57;1.42;;;0.68;;
43650;SDS011;29247;50.944;5.382;2023-03-13T15:42:26;2.55;;;0.90;;
43650;SDS011;29247;50.944;5.382;2023-03-13T15:44:52;5.70;;;1.02;;
43650;SDS011;29247;50.944;5.382;2023-03-13T15:47:18;5.45;;;1.05;;
43650;SDS011;29247;50.944;5.382;2023-03-13T15:49:46;5.22;;;1.15;;
43650;SDS011;29247;50.944;5.382;2023-03-13T15:52:15;4.05;;;1.00;;
43650;SDS011;29247;50.944;5.382;2023-03-13T15:54:46;2.00;;;0.90;;
43650;SDS011;29247;50.944;5.382;2023-03-13T15:57:17;1.00;;;0.70;;
43650;SDS011;29247;50.944;5.382;2023-03-13T15:59:50;2.60;;;1.05;;
43650;SDS011;29247;50.944;5.382;2023-03-13T16:02:21;2.40;;;0.90;;
43650;SDS011;29247;50.944;5.382;2023-03-13T16:04:49;4.68;;;1.08;;
43650;SDS011;29247;50.944;5.382;2023-03-13T16:07:17;3.05;;;1.00;;
43650;SDS011;29247;50.944;5.382;2023-03-13T16:09:48;2.40;;;1.10;;
43650;SDS011;29247;50.944;5.382;2023-03-13T16:12:16;3.10;;;1.80;;
43650;SDS011;29247;50.944;5.382;2023-03-13T16:14:42;3.45;;;0.90;;
43650;SDS011;29247;50.944;5.382;2023-03-13T16:17:17;3.78;;;1.27;;
43650;SDS011;29247;50.944;5.382;2023-03-13T16:19:46;4.05;;;2.15;;
43650;SDS011;29247;50.944;5.382;2023-03-13T16:22:17;1.92;;;1.00;;
43650;SDS011;29247;50.944;5.382;2023-03-13T16:24:43;2.38;;;0.93;;
43650;SDS011;29247;50.944;5.382;2023-03-13T16:27:16;4.68;;;1.02;;
43650;SDS011;29247;50.944;5.382;2023-03-13T16:29:45;8.15;;;1.20;;
43650;SDS011;29247;50.944;5.382;2023-03-13T16:32:12;2.28;;;0.77;;
43650;SDS011;29247;50.944;5.382;2023-03-13T16:34:43;5.83;;;1.30;;
43650;SDS011;29247;50.944;5.382;2023-03-13T16:37:15;3.92;;;0.82;;
43650;SDS011;29247;50.944;5.382;2023-03-13T16:39:44;4.15;;;1.10;;
43650;SDS011;29247;50.944;5.382;2023-03-13T16:42:14;3.03;;;1.00;;
43650;SDS011;29247;50.944;5.382;2023-03-13T16:44:40;6.50;;;0.98;;
43650;SDS011;29247;50.944;5.382;2023-03-13T16:49:53;4.30;;;1.10;;
43650;SDS011;29247;50.944;5.382;2023-03-13T16:52:21;3.33;;;1.02;;
43650;SDS011;29247;50.944;5.382;2023-03-13T16:54:50;3.67;;;1.20;;
43650;SDS011;29247;50.944;5.382;2023-03-13T16:57:21;3.03;;;1.08;;
43650;SDS011;29247;50.944;5.382;2023-03-13T16:59:49;4.30;;;1.00;;
43650;SDS011;29247;50.944;5.382;2023-03-13T17:02:18;8.07;;;1.10;;
43650;SDS011;29247;50.944;5.382;2023-03-13T17:04:47;3.38;;;0.98;;
43650;SDS011;29247;50.944;5.382;2023-03-13T17:07:22;2.45;;;1.00;;
43650;SDS011;29247;50.944;5.382;2023-03-13T17:09:53;4.97;;;1.08;;
43650;SDS011;29247;50.944;5.382;2023-03-13T17:12:19;6.28;;;1.33;;
43650;SDS011;29247;50.944;5.382;2023-03-13T17:14:45;4.20;;;2.20;;
43650;SDS011;29247;50.944;5.382;2023-03-13T17:17:12;4.50;;;1.10;;
43650;SDS011;29247;50.944;5.382;2023-03-13T17:19:44;1.98;;;0.93;;
43650;SDS011;29247;50.944;5.382;2023-03-13T17:22:13;4.93;;;1.00;;
43650;SDS011;29247;50.944;5.382;2023-03-13T17:24:40;3.20;;;0.82;;
43650;SDS011;29247;50.944;5.382;2023-03-13T17:27:16;6.05;;;1.45;;
43650;SDS011;29247;50.944;5.382;2023-03-13T17:29:44;3.70;;;1.10;;
43650;SDS011;29247;50.944;5.382;2023-03-13T17:32:10;8.48;;;1.00;;
43650;SDS011;29247;50.944;5.382;2023-03-13T17:34:37;3.42;;;1.10;;
43650;SDS011;29247;50.944;5.382;2023-03-13T17:37:08;1.80;;;0.93;;
43650;SDS011;29247;50.944;5.382;2023-03-13T17:39:45;2.42;;;1.13;;
43650;SDS011;29247;50.944;5.382;2023-03-13T17:42:13;2.65;;;1.02;;